Time;durP1;ratioP1;P1;durP2;ratioP2;P2;SDS_P1;SDS_P2;PMS_P1;PMS_P2;Temp;Humidity;BMP_temperature;BMP_pressure;BME280_temperature;BME280_humidity;BME280_pressure;Samples;Min_cycle;Max_cycle;Signal;HPM_P1;HPM_P2
2023/09/28 00:00:35;;;;;;;42.90;40.07;;;17.80;88.00;;;;;;5003290;28;20380;-72
2023/09/28 00:02:47;;;;;;;35.50;32.70;;;17.70;88.10;;;;;;5015343;28;20042;-72
2023/09/28 00:05:14;;;;;;;38.60;35.87;;;17.70;88.10;;;;;;5008236;28;20545;-72
2023/09/28 00:07:44;;;;;;;38.67;35.80;;;17.70;88.10;;;;;;5000732;28;20141;-72
2023/09/28 00:10:17;;;;;;;42.63;39.80;;;17.70;88.20;;;;;;4999866;28;20645;-72
2023/09/28 00:12:46;;;;;;;41.47;38.67;;;17.70;88.10;;;;;;4981299;28;20286;-72
2023/09/28 00:15:12;;;;;;;30.23;27.90;;;17.60;88.30;;;;;;5007297;28;20707;-72
2023/09/28 00:17:38;;;;;;;51.50;48.27;;;17.60;88.40;;;;;;4992671;28;20304;-72
2023/09/28 00:20:18;;;;;;;43.07;39.97;;;17.60;88.40;;;;;;5006943;28;20502;-72
2023/09/28 00:22:49;;;;;;;41.00;38.30;;;17.60;88.50;;;;;;4993227;28;20293;-72
2023/09/28 00:25:16;;;;;;;35.53;33.03;;;17.60;88.50;;;;;;5008098;28;20289;-72
2023/09/28 00:27:47;;;;;;;38.43;35.57;;;17.60;88.40;;;;;;4986080;28;20331;-72
2023/09/28 00:30:18;;;;;;;38.93;36.13;;;17.60;88.30;;;;;;4996653;28;20308;-72
2023/09/28 00:32:45;;;;;;;36.60;34.17;;;17.60;88.20;;;;;;4996751;28;20391;-72
2023/09/28 00:35:11;;;;;;;39.30;36.40;;;17.70;88.30;;;;;;5002195;28;20351;-72
2023/09/28 00:37:37;;;;;;;40.53;37.83;;;17.60;88.10;;;;;;4997047;28;20041;-72
2023/09/28 00:40:18;;;;;;;40.97;38.23;;;17.60;88.10;;;;;;5005861;28;20300;-72
2023/09/28 00:42:46;;;;;;;31.73;29.53;;;17.60;88.10;;;;;;4998182;28;20410;-72
2023/09/28 00:45:12;;;;;;;35.97;33.47;;;17.50;88.30;;;;;;4995679;28;20277;-72
2023/09/28 00:47:39;;;;;;;40.67;38.23;;;17.50;88.30;;;;;;4999449;28;20308;-72
2023/09/28 00:50:10;;;;;;;38.60;36.10;;;17.40;88.40;;;;;;5001197;28;21089;-72
2023/09/28 00:52:41;;;;;;;41.47;38.67;;;17.40;88.50;;;;;;5006166;28;20285;-72
2023/09/28 00:55:09;;;;;;;36.47;33.93;;;17.40;88.60;;;;;;5010047;28;20371;-72
2023/09/28 00:57:39;;;;;;;41.03;38.37;;;17.40;88.70;;;;;;5006134;28;20289;-72
2023/09/28 01:00:24;;;;;;;34.10;31.67;;;17.30;88.90;;;;;;5003892;28;20315;-72
2023/09/28 01:02:51;;;;;;;35.47;33.13;;;17.30;88.80;;;;;;5002027;28;20336;-72
2023/09/28 01:05:31;;;;;;;34.87;32.43;;;17.30;88.90;;;;;;5003109;28;20045;-72
2023/09/28 01:08:07;;;;;;;28.37;26.13;;;17.30;88.80;;;;;;5005970;28;20811;-72
2023/09/28 01:10:35;;;;;;;30.47;28.27;;;17.20;89.00;;;;;;5000184;28;20269;-72
2023/09/28 01:13:07;;;;;;;33.60;31.20;;;17.20;89.10;;;;;;5000656;28;20273;-72
2023/09/28 01:15:33;;;;;;;35.50;32.97;;;17.10;89.00;;;;;;5004573;28;20312;-72
2023/09/28 01:17:58;;;;;;;30.20;28.10;;;17.10;89.20;;;;;;5004135;28;20300;-72
2023/09/28 01:20:34;;;;;;;31.37;29.17;;;17.00;89.30;;;;;;5001937;28;20312;-72
2023/09/28 01:23:00;;;;;;;35.03;32.40;;;17.00;89.40;;;;;;5007975;28;20054;-72
2023/09/28 01:25:26;;;;;;;42.80;40.03;;;16.90;89.60;;;;;;5003742;28;20295;-72
2023/09/28 01:27:52;;;;;;;37.03;34.63;;;16.90;89.70;;;;;;5004716;28;20486;-72
2023/09/28 01:30:18;;;;;;;36.70;34.30;;;16.90;89.90;;;;;;5002434;28;20041;-72
2023/09/28 01:32:44;;;;;;;37.93;35.10;;;16.80;90.00;;;;;;5005020;28;20300;-72
2023/09/28 01:35:13;;;;;;;30.53;28.30;;;16.70;90.10;;;;;;5005921;28;20042;-72
2023/09/28 01:37:44;;;;;;;36.97;34.67;;;16.70;90.30;;;;;;5000847;28;20066;-72
2023/09/28 01:40:13;;;;;;;35.23;32.77;;;16.70;90.50;;;;;;5005230;28;20280;-72
2023/09/28 01:42:38;;;;;;;40.23;37.73;;;16.60;90.80;;;;;;5003977;28;20343;-72
2023/09/28 01:45:05;;;;;;;34.10;31.93;;;16.60;90.70;;;;;;4999017;28;20290;-72
2023/09/28 01:47:30;;;;;;;28.53;26.40;;;16.60;90.90;;;;;;5006444;28;20386;-72
2023/09/28 01:49:56;;;;;;;28.60;26.47;;;16.60;90.90;;;;;;5001933;28;20355;-72
2023/09/28 01:52:22;;;;;;;31.37;29.37;;;16.60;91.20;;;;;;5006132;28;20145;-72
2023/09/28 01:54:48;;;;;;;33.90;31.53;;;16.50;91.30;;;;;;5005042;28;20045;-72
2023/09/28 01:57:14;;;;;;;40.67;38.10;;;16.50;91.50;;;;;;5001502;28;20073;-72
2023/09/28 01:59:40;;;;;;;28.67;26.63;;;16.40;91.40;;;;;;4987271;28;20332;-72
2023/09/28 02:02:05;;;;;;;26.70;24.70;;;16.40;91.50;;;;;;4996644;28;20512;-72
2023/09/28 02:04:31;;;;;;;28.73;26.83;;;16.40;91.70;;;;;;4998889;28;20418;-72
2023/09/28 02:06:56;;;;;;;28.50;26.60;;;16.40;91.70;;;;;;4986959;28;20038;-72
2023/09/28 02:09:23;;;;;;;25.27;23.43;;;16.40;92.30;;;;;;4985539;28;20049;-72
2023/09/28 02:11:49;;;;;;;77.73;73.03;;;16.40;92.40;;;;;;5003886;28;20077;-72
2023/09/28 02:14:15;;;;;;;29.73;27.87;;;16.50;92.50;;;;;;4998172;28;20288;-72
2023/09/28 02:16:40;;;;;;;23.67;21.90;;;16.50;92.50;;;;;;4991497;28;20042;-72
2023/09/28 02:19:10;;;;;;;30.63;28.80;;;16.50;92.60;;;;;;5008548;28;20136;-72
2023/09/28 02:21:36;;;;;;;26.23;24.53;;;16.60;92.80;;;;;;5008214;28;20644;-72
2023/09/28 02:24:01;;;;;;;21.80;20.40;;;16.70;92.70;;;;;;5009766;28;20293;-72
2023/09/28 02:26:27;;;;;;;28.90;27.00;;;16.70;93.20;;;;;;4991850;28;20100;-72
2023/09/28 02:28:53;;;;;;;24.67;23.07;;;16.80;93.30;;;;;;5002355;28;20435;-72
2023/09/28 02:31:18;;;;;;;27.30;25.50;;;16.80;92.80;;;;;;5002912;28;20310;-72
2023/09/28 02:33:47;;;;;;;30.27;28.37;;;16.80;92.80;;;;;;5007206;28;20092;-72
2023/09/28 02:36:12;;;;;;;27.93;25.93;;;16.80;92.80;;;;;;4995762;28;20088;-72
2023/09/28 02:38:38;;;;;;;23.90;22.20;;;16.80;92.90;;;;;;5004836;28;20844;-72
2023/09/28 02:41:04;;;;;;;28.33;26.50;;;16.80;93.20;;;;;;5009446;28;20034;-72
2023/09/28 02:43:30;;;;;;;28.03;26.23;;;16.80;93.00;;;;;;5010793;28;20057;-72
2023/09/28 02:45:55;;;;;;;26.23;24.53;;;16.80;93.40;;;;;;4991951;28;20092;-72
2023/09/28 02:48:21;;;;;;;28.40;26.57;;;16.80;93.40;;;;;;5007247;28;20042;-72
2023/09/28 02:50:48;;;;;;;22.33;20.77;;;16.80;93.50;;;;;;5007906;28;20037;-72
2023/09/28 02:53:14;;;;;;;20.73;19.50;;;16.80;93.50;;;;;;5008136;28;20437;-72
2023/09/28 02:55:40;;;;;;;36.03;33.93;;;16.80;93.60;;;;;;5002606;28;20281;-72
2023/09/28 02:58:06;;;;;;;35.53;33.40;;;16.80;93.60;;;;;;5003413;28;20300;-72
2023/09/28 03:00:33;;;;;;;30.97;29.07;;;16.80;93.80;;;;;;5005512;28;20042;-72
2023/09/28 03:03:05;;;;;;;25.87;24.27;;;16.80;93.90;;;;;;5007928;28;20315;-72
2023/09/28 03:05:32;;;;;;;38.03;35.80;;;16.80;94.00;;;;;;4999535;28;20304;-72
2023/09/28 03:07:58;;;;;;;29.87;27.80;;;16.80;93.90;;;;;;5007426;28;20384;-72
2023/09/28 03:10:24;;;;;;;25.70;23.87;;;16.80;94.10;;;;;;5004121;28;20844;-72
2023/09/28 03:12:51;;;;;;;39.07;36.83;;;16.80;94.20;;;;;;5008069;28;20289;-72
2023/09/28 03:15:18;;;;;;;36.90;34.40;;;16.80;94.30;;;;;;5009024;28;20088;-72
2023/09/28 03:17:46;;;;;;;37.40;35.27;;;16.80;94.30;;;;;;5009374;28;20376;-72
2023/09/28 03:20:15;;;;;;;50.43;47.53;;;16.80;94.70;;;;;;5007587;28;20380;-72
2023/09/28 03:22:42;;;;;;;51.50;48.23;;;16.80;94.80;;;;;;5009130;28;20374;-72
2023/09/28 03:25:11;;;;;;;48.87;46.23;;;16.70;94.70;;;;;;4995902;28;20713;-72
2023/09/28 03:27:37;;;;;;;43.57;40.97;;;16.70;94.80;;;;;;4990948;28;20315;-72
2023/09/28 03:30:09;;;;;;;41.70;39.20;;;16.70;95.00;;;;;;5004871;28;20281;-72
2023/09/28 03:32:35;;;;;;;36.80;34.30;;;16.70;95.40;;;;;;5008950;28;20052;-72
2023/09/28 03:35:03;;;;;;;47.97;44.80;;;16.70;95.20;;;;;;5005553;28;20812;-72
2023/09/28 03:37:29;;;;;;;46.33;43.60;;;16.70;95.50;;;;;;4991617;28;20034;-72
2023/09/28 03:39:56;;;;;;;50.43;47.40;;;16.70;95.40;;;;;;5008610;28;20656;-72
2023/09/28 03:42:22;;;;;;;39.77;36.97;;;16.70;95.70;;;;;;5007360;28;20038;-72
2023/09/28 03:44:48;;;;;;;68.50;64.93;;;16.70;95.70;;;;;;5010083;28;20296;-72
2023/09/28 03:47:13;;;;;;;54.33;51.13;;;16.70;95.70;;;;;;4983717;28;20137;-72
2023/09/28 03:49:39;;;;;;;42.97;40.57;;;16.80;95.90;;;;;;5006819;28;20077;-72
2023/09/28 03:52:05;;;;;;;42.70;39.93;;;16.80;95.90;;;;;;5002834;28;20080;-72
2023/09/28 03:54:30;;;;;;;48.03;45.40;;;16.80;96.10;;;;;;5003062;28;20053;-72
2023/09/28 03:56:56;;;;;;;38.20;35.90;;;16.80;96.20;;;;;;5003260;28;20085;-72
2023/09/28 03:59:22;;;;;;;41.27;38.50;;;16.70;96.10;;;;;;5008642;28;20104;-72
2023/09/28 04:01:48;;;;;;;45.37;42.80;;;16.70;96.30;;;;;;4999558;28;20053;-72
2023/09/28 04:04:14;;;;;;;37.17;34.90;;;16.70;96.40;;;;;;5001466;28;20085;-72
2023/09/28 04:06:40;;;;;;;46.43;43.70;;;16.60;96.40;;;;;;5008410;28;20049;-72
2023/09/28 04:09:07;;;;;;;30.27;28.27;;;16.70;96.50;;;;;;4993867;28;20789;-72
2023/09/28 04:11:34;;;;;;;30.87;29.10;;;16.70;96.10;;;;;;5003606;28;20057;-72
2023/09/28 04:14:03;;;;;;;29.53;27.50;;;16.70;95.80;;;;;;4999885;28;20696;-72
2023/09/28 04:16:28;;;;;;;37.83;35.33;;;16.70;95.60;;;;;;4988463;28;20781;-72
2023/09/28 04:18:54;;;;;;;34.60;32.53;;;16.60;95.70;;;;;;5005569;28;20288;-72
2023/09/28 04:21:20;;;;;;;35.13;32.77;;;16.60;96.00;;;;;;5005806;28;20050;-72
2023/09/28 04:23:45;;;;;;;41.23;38.47;;;16.50;96.20;;;;;;5004932;28;20046;-72
2023/09/28 04:26:11;;;;;;;91.43;86.33;;;16.50;96.10;;;;;;4984653;28;20417;-72
2023/09/28 04:28:37;;;;;;;45.20;42.57;;;16.50;96.30;;;;;;4999873;28;20126;-72
2023/09/28 04:31:03;;;;;;;38.17;35.27;;;16.50;96.60;;;;;;5001099;28;20041;-72
2023/09/28 04:33:28;;;;;;;46.07;43.13;;;16.50;96.30;;;;;;5008131;28;20506;-72
2023/09/28 04:35:55;;;;;;;43.40;40.47;;;16.50;96.20;;;;;;4999621;28;20426;-72
2023/09/28 04:38:22;;;;;;;41.27;38.47;;;16.50;95.50;;;;;;5008380;28;20448;-72
2023/09/28 04:40:47;;;;;;;45.23;42.17;;;16.40;94.80;;;;;;5001938;28;20305;-72
2023/09/28 04:43:13;;;;;;;61.63;58.33;;;16.40;94.60;;;;;;5000238;28;20666;-72
2023/09/28 04:45:39;;;;;;;56.97;53.27;;;16.30;94.30;;;;;;5002265;28;20054;-72
2023/09/28 04:48:05;;;;;;;50.83;47.70;;;16.20;94.40;;;;;;4976924;28;20030;-72
2023/09/28 04:50:30;;;;;;;59.93;56.33;;;16.10;94.20;;;;;;5005977;28;20069;-72
2023/09/28 04:52:56;;;;;;;47.63;44.27;;;16.10;93.90;;;;;;5007132;28;20080;-72
2023/09/28 04:55:23;;;;;;;36.43;33.50;;;16.00;93.40;;;;;;5006172;28;20052;-72
2023/09/28 04:57:49;;;;;;;52.67;49.37;;;16.00;93.10;;;;;;5002894;28;20042;-72
2023/09/28 05:00:16;;;;;;;39.63;36.00;;;15.90;92.90;;;;;;5005570;28;20807;-72
2023/09/28 05:02:45;;;;;;;35.60;31.97;;;15.90;92.80;;;;;;4998924;28;20042;-72
2023/09/28 05:05:12;;;;;;;116.97;110.73;;;15.90;92.50;;;;;;5006124;28;20372;-72
2023/09/28 05:07:37;;;;;;;101.60;95.67;;;15.80;92.50;;;;;;5005640;28;20307;-72
2023/09/28 05:10:05;;;;;;;102.43;96.40;;;15.80;92.40;;;;;;5001802;28;20300;-72
2023/09/28 05:12:32;;;;;;;109.57;103.57;;;15.70;92.60;;;;;;5006962;28;20049;-72
2023/09/28 05:14:59;;;;;;;99.63;93.23;;;15.70;92.80;;;;;;5002008;28;20300;-72
2023/09/28 05:17:24;;;;;;;233.60;216.87;;;15.70;92.80;;;;;;5001225;28;20320;-72
2023/09/28 05:19:50;;;;;;;102.33;96.23;;;15.70;92.80;;;;;;5005130;28;20788;-72
2023/09/28 05:22:16;;;;;;;141.47;131.97;;;15.60;92.90;;;;;;5004579;28;20064;-72
2023/09/28 05:24:42;;;;;;;95.60;89.73;;;15.60;93.20;;;;;;5006424;28;20049;-72
2023/09/28 05:27:07;;;;;;;135.50;127.97;;;15.60;93.50;;;;;;5006732;28;20642;-72
2023/09/28 05:29:34;;;;;;;132.83;125.43;;;15.50;93.90;;;;;;5003402;28;20125;-71
2023/09/28 05:31:59;;;;;;;154.40;146.87;;;15.50;93.80;;;;;;5007628;28;20042;-71
2023/09/28 05:34:25;;;;;;;163.13;154.97;;;15.40;93.70;;;;;;5006582;28;20845;-71
2023/09/28 05:36:51;;;;;;;144.37;136.97;;;15.40;93.90;;;;;;4984123;28;20045;-71
2023/09/28 05:39:18;;;;;;;167.40;159.37;;;15.30;94.80;;;;;;5001149;28;20772;-71
2023/09/28 05:41:44;;;;;;;162.77;154.67;;;15.30;94.80;;;;;;5001697;28;20045;-71
2023/09/28 05:44:10;;;;;;;171.53;163.13;;;15.30;94.70;;;;;;5012204;28;20776;-71
2023/09/28 05:46:36;;;;;;;144.07;136.10;;;15.30;94.80;;;;;;5011489;28;20308;-71
2023/09/28 05:49:02;;;;;;;148.10;139.90;;;15.30;94.90;;;;;;5007447;28;20312;-71
2023/09/28 05:51:28;;;;;;;134.80;126.67;;;15.40;94.80;;;;;;4994632;28;20338;-71
2023/09/28 05:53:54;;;;;;;116.07;110.03;;;15.40;94.90;;;;;;5001222;28;20125;-71
2023/09/28 05:56:20;;;;;;;120.87;113.67;;;15.40;95.10;;;;;;4997681;28;20049;-71
2023/09/28 05:58:46;;;;;;;124.13;116.90;;;15.40;95.00;;;;;;5009969;28;20327;-71
2023/09/28 06:01:16;;;;;;;141.50;133.83;;;15.30;95.00;;;;;;5004921;28;20103;-71
2023/09/28 06:03:43;;;;;;;88.13;82.70;;;15.30;95.00;;;;;;5003468;28;20656;-71
2023/09/28 06:06:14;;;;;;;151.63;139.73;;;15.30;95.00;;;;;;4996609;28;20320;-71
2023/09/28 06:08:41;;;;;;;100.57;94.10;;;15.30;95.10;;;;;;5011505;28;20297;-71
2023/09/28 06:11:10;;;;;;;81.73;75.73;;;15.30;95.20;;;;;;5009369;28;20277;-71
2023/09/28 06:13:35;;;;;;;111.13;103.97;;;15.40;95.30;;;;;;5011112;28;20443;-71
2023/09/28 06:16:01;;;;;;;91.63;85.93;;;15.50;95.50;;;;;;5010974;28;20367;-71
2023/09/28 06:18:27;;;;;;;85.67;79.50;;;15.60;95.90;;;;;;5002909;28;20181;-71
2023/09/28 06:20:53;;;;;;;121.30;114.37;;;15.70;95.60;;;;;;5004802;28;20045;-71
2023/09/28 06:23:20;;;;;;;79.87;75.10;;;15.80;95.20;;;;;;5006286;28;20050;-71
2023/09/28 06:25:45;;;;;;;71.63;65.87;;;15.90;95.00;;;;;;5005172;28;20429;-71
2023/09/28 06:28:11;;;;;;;64.17;58.87;;;16.00;94.80;;;;;;5007719;28;20281;-71
2023/09/28 06:30:37;;;;;;;68.83;63.27;;;16.10;94.50;;;;;;5002867;28;20502;-72
2023/09/28 06:33:03;;;;;;;49.27;45.07;;;16.10;94.40;;;;;;5011260;28;20038;-72
2023/09/28 06:35:28;;;;;;;54.37;49.87;;;16.20;94.10;;;;;;5009506;28;20038;-71
2023/09/28 06:37:54;;;;;;;77.43;72.50;;;16.30;93.80;;;;;;5010420;28;20522;-71
2023/09/28 06:40:20;;;;;;;92.63;87.03;;;16.30;93.70;;;;;;5010608;28;20037;-71
2023/09/28 06:42:46;;;;;;;62.37;58.03;;;16.40;93.30;;;;;;5009402;28;20291;-72
2023/09/28 06:45:12;;;;;;;98.90;92.23;;;16.40;93.10;;;;;;5012650;28;20124;-72
2023/09/28 06:47:37;;;;;;;57.53;53.20;;;16.50;93.10;;;;;;5010216;28;20568;-72
2023/09/28 06:50:04;;;;;;;62.90;58.20;;;16.50;92.90;;;;;;5012054;28;20037;-72
2023/09/28 06:52:30;;;;;;;62.73;58.17;;;16.60;92.80;;;;;;5023931;28;20048;-72
2023/09/28 06:54:57;;;;;;;77.17;71.90;;;16.60;92.30;;;;;;5005352;28;20288;-72
2023/09/28 06:57:23;;;;;;;91.87;84.90;;;16.70;92.10;;;;;;5014242;28;20288;-71
2023/09/28 06:59:49;;;;;;;166.07;157.53;;;16.70;91.80;;;;;;5006048;28;20360;-72
2023/09/28 07:02:15;;;;;;;137.83;130.60;;;16.70;91.60;;;;;;5004996;28;20317;-72
2023/09/28 07:04:42;;;;;;;168.13;159.73;;;16.80;91.80;;;;;;5010041;28;20375;-72
2023/09/28 07:07:10;;;;;;;180.70;171.20;;;16.90;91.40;;;;;;5003183;28;20049;-72
2023/09/28 07:09:36;;;;;;;173.90;164.70;;;17.00;91.60;;;;;;4999619;28;20312;-72
2023/09/28 07:12:02;;;;;;;144.97;136.87;;;17.10;91.10;;;;;;5002413;28;20285;-72
2023/09/28 07:14:28;;;;;;;168.60;160.33;;;17.10;90.80;;;;;;5001603;28;20378;-72
2023/09/28 07:16:54;;;;;;;171.63;162.57;;;17.20;90.70;;;;;;5000867;28;20112;-72
2023/09/28 07:19:20;;;;;;;177.13;168.17;;;17.20;90.00;;;;;;4983430;28;20297;-72
2023/09/28 07:21:46;;;;;;;210.10;200.03;;;17.30;89.80;;;;;;4996808;28;20050;-72
2023/09/28 07:24:12;;;;;;;164.97;155.73;;;17.40;89.20;;;;;;5009613;28;20300;-72
2023/09/28 07:26:37;;;;;;;246.20;233.83;;;17.40;89.00;;;;;;5006124;28;20050;-72
2023/09/28 07:29:04;;;;;;;81.43;75.83;;;17.50;88.90;;;;;;5005028;28;20034;-72
2023/09/28 07:31:30;;;;;;;589.53;550.17;;;17.50;87.80;;;;;;5006913;28;20042;-72
2023/09/28 07:33:56;;;;;;;348.50;330.77;;;17.60;85.90;;;;;;4991345;28;20287;-72
2023/09/28 07:36:22;;;;;;;257.57;245.67;;;17.60;85.60;;;;;;5006872;28;20461;-72
2023/09/28 07:38:47;;;;;;;279.17;266.67;;;17.70;85.90;;;;;;5007850;28;21085;-72
2023/09/28 07:41:13;;;;;;;264.60;252.20;;;17.70;85.20;;;;;;5005912;28;20288;-72
2023/09/28 07:43:39;;;;;;;277.17;264.37;;;17.80;85.20;;;;;;5008118;28;20056;-72
2023/09/28 07:46:06;;;;;;;281.17;268.60;;;17.90;85.30;;;;;;5007046;28;20096;-72
2023/09/28 07:48:32;;;;;;;310.00;295.50;;;17.90;84.60;;;;;;4992258;28;20116;-72
2023/09/28 07:50:58;;;;;;;286.77;274.13;;;18.00;85.10;;;;;;5009676;28;20486;-72
2023/09/28 07:53:24;;;;;;;278.13;265.13;;;18.00;84.90;;;;;;5008308;28;20045;-72
2023/09/28 07:55:50;;;;;;;283.23;270.37;;;18.00;84.90;;;;;;5008571;28;20053;-72
2023/09/28 07:58:16;;;;;;;309.40;294.93;;;18.10;84.90;;;;;;5005733;28;20038;-71
2023/09/28 08:00:42;;;;;;;301.77;287.70;;;18.20;84.80;;;;;;5000048;28;20037;-72
2023/09/28 08:03:07;;;;;;;304.80;290.50;;;18.20;84.30;;;;;;5002939;28;20042;-72
2023/09/28 08:05:33;;;;;;;296.43;283.07;;;18.30;84.10;;;;;;5007497;28;20042;-72
2023/09/28 08:08:00;;;;;;;269.83;257.70;;;18.40;83.10;;;;;;5007336;28;20058;-72
2023/09/28 08:10:26;;;;;;;243.23;231.90;;;18.50;83.00;;;;;;5008889;28;20060;-72
2023/09/28 08:12:53;;;;;;;275.50;263.50;;;18.50;82.20;;;;;;5007002;28;20038;-72
2023/09/28 08:15:18;;;;;;;248.33;237.47;;;18.50;80.50;;;;;;5010307;28;20126;-71
2023/09/28 08:17:47;;;;;;;257.63;245.83;;;18.60;81.30;;;;;;5010776;28;20125;-72
2023/09/28 08:20:15;;;;;;;262.93;251.07;;;18.70;80.10;;;;;;5009258;28;20117;-72
2023/09/28 08:22:40;;;;;;;271.23;259.07;;;18.70;80.00;;;;;;5002659;28;20490;-72
2023/09/28 08:25:07;;;;;;;261.97;250.00;;;18.80;80.90;;;;;;5004914;28;20041;-72
2023/09/28 08:27:32;;;;;;;274.97;262.73;;;18.80;80.50;;;;;;5009831;28;20050;-72
2023/09/28 08:29:58;;;;;;;273.20;260.57;;;18.80;79.90;;;;;;5000089;28;20038;-72
2023/09/28 08:32:24;;;;;;;276.23;263.70;;;18.80;79.60;;;;;;5005969;28;20056;-72
2023/09/28 08:34:49;;;;;;;314.60;299.20;;;18.80;79.30;;;;;;5002829;28;20141;-72
2023/09/28 08:37:15;;;;;;;323.33;307.93;;;18.80;78.80;;;;;;5009773;28;20041;-72
2023/09/28 08:39:40;;;;;;;274.13;261.77;;;18.80;77.70;;;;;;5002496;28;20565;-71
2023/09/28 08:42:12;;;;;;;275.33;262.87;;;18.80;79.40;;;;;;5006221;28;20041;-72
2023/09/28 08:44:39;;;;;;;288.27;274.57;;;18.80;79.20;;;;;;5002902;28;20095;-72
2023/09/28 08:47:18;;;;;;;285.83;272.80;;;18.80;79.00;;;;;;5001723;28;20049;-72
2023/09/28 08:49:49;;;;;;;279.00;265.80;;;18.80;79.80;;;;;;5007787;28;20125;-71
2023/09/28 08:52:16;;;;;;;317.27;301.87;;;18.80;79.80;;;;;;5007893;28;20063;-72
2023/09/28 08:54:42;;;;;;;277.20;264.57;;;18.90;80.10;;;;;;5004438;28;20466;-72
2023/09/28 08:57:11;;;;;;;283.00;269.47;;;18.90;80.10;;;;;;5000933;28;20057;-72
2023/09/28 08:59:37;;;;;;;285.50;272.30;;;18.90;80.10;;;;;;5001861;28;20088;-72
2023/09/28 09:02:03;;;;;;;297.40;283.77;;;19.00;79.50;;;;;;5002083;28;20073;-72
2023/09/28 09:04:36;;;;;;;273.40;260.70;;;19.00;79.00;;;;;;5008745;28;20038;-72
2023/09/28 09:07:04;;;;;;;310.23;295.53;;;19.00;79.10;;;;;;4994751;28;20041;-72
2023/09/28 09:09:32;;;;;;;275.43;263.13;;;19.00;78.70;;;;;;5006929;28;20334;-72
2023/09/28 09:12:03;;;;;;;282.60;268.97;;;19.00;79.00;;;;;;5004713;28;20030;-72
2023/09/28 09:14:29;;;;;;;315.70;300.93;;;19.10;78.90;;;;;;5004090;28;20038;-72
2023/09/28 09:16:55;;;;;;;295.30;281.63;;;19.20;78.80;;;;;;5008497;28;20871;-72
2023/09/28 09:19:21;;;;;;;251.47;239.27;;;19.20;78.40;;;;;;5025242;28;20100;-72
2023/09/28 09:21:49;;;;;;;286.57;273.37;;;19.30;78.60;;;;;;5001504;28;20501;-72
2023/09/28 09:24:18;;;;;;;309.13;294.60;;;19.30;78.90;;;;;;5004082;28;20056;-72
2023/09/28 09:26:46;;;;;;;284.60;271.27;;;19.30;79.10;;;;;;5026412;28;20483;-72
2023/09/28 09:29:15;;;;;;;244.40;232.23;;;19.50;79.00;;;;;;5005533;28;20045;-72
2023/09/28 09:31:45;;;;;;;309.10;293.33;;;19.50;77.80;;;;;;5007743;28;20037;-72
2023/09/28 09:34:17;;;;;;;336.63;319.77;;;19.60;77.20;;;;;;4993932;28;20260;-72
2023/09/28 09:36:54;;;;;;;274.03;261.20;;;19.60;76.50;;;;;;4988542;28;20042;-72
2023/09/28 09:39:30;;;;;;;531.30;453.00;;;19.60;77.00;;;;;;5004747;28;20513;-72
2023/09/28 09:41:57;;;;;;;267.73;254.57;;;19.60;75.60;;;;;;5000604;28;20933;-72
2023/09/28 09:44:26;;;;;;;223.77;212.27;;;19.70;76.70;;;;;;4999856;28;20073;-72
2023/09/28 09:46:54;;;;;;;300.07;283.03;;;19.70;76.30;;;;;;4995906;28;20467;-71
2023/09/28 09:49:23;;;;;;;854.90;652.00;;;19.70;76.10;;;;;;4996881;28;20454;-72
2023/09/28 09:51:49;;;;;;;238.60;227.50;;;19.70;74.80;;;;;;5006940;28;20430;-72
2023/09/28 09:54:16;;;;;;;284.00;270.30;;;19.70;75.80;;;;;;5005811;28;20037;-72
2023/09/28 09:56:47;;;;;;;344.37;324.03;;;19.70;75.70;;;;;;5003600;28;20121;-72
2023/09/28 09:59:18;;;;;;;336.10;314.10;;;19.70;74.90;;;;;;5000443;28;20041;-72
2023/09/28 10:01:47;;;;;;;208.10;196.83;;;19.60;75.20;;;;;;4998318;28;20041;-72
2023/09/28 10:04:16;;;;;;;753.33;658.10;;;19.40;74.90;;;;;;5002042;28;20389;-72
2023/09/28 10:06:51;;;;;;;243.60;231.90;;;19.30;74.60;;;;;;5003263;28;20077;-72
2023/09/28 10:09:19;;;;;;;329.53;310.63;;;19.20;75.40;;;;;;5003980;28;20978;-72
2023/09/28 10:11:48;;;;;;;260.00;248.23;;;19.20;75.30;;;;;;4997317;28;20045;-72
2023/09/28 10:14:19;;;;;;;292.73;276.30;;;19.30;75.90;;;;;;5004728;28;20038;-72
2023/09/28 10:16:50;;;;;;;259.70;246.93;;;19.40;75.50;;;;;;5008707;28;20042;-72
2023/09/28 10:19:21;;;;;;;239.40;227.63;;;19.50;75.20;;;;;;5004382;28;20573;-72
2023/09/28 10:21:47;;;;;;;312.37;297.20;;;19.60;75.10;;;;;;4999165;28;20137;-72
2023/09/28 10:24:15;;;;;;;304.93;290.47;;;19.70;74.40;;;;;;5003921;28;20125;-72
2023/09/28 10:26:51;;;;;;;244.93;232.97;;;19.70;74.40;;;;;;5004949;28;20498;-72
2023/09/28 10:29:30;;;;;;;270.93;257.60;;;19.80;74.80;;;;;;5002296;28;20402;-73
2023/09/28 10:31:57;;;;;;;244.37;233.37;;;19.80;74.40;;;;;;5010508;28;20787;-73
2023/09/28 10:34:27;;;;;;;265.80;253.87;;;19.90;74.90;;;;;;5011846;28;20044;-74
2023/09/28 10:37:10;;;;;;;262.93;247.73;;;19.90;74.80;;;;;;5014984;28;20077;-74
2023/09/28 10:39:37;;;;;;;245.23;233.63;;;20.00;73.80;;;;;;5005967;28;20132;-73
2023/09/28 10:42:15;;;;;;;337.87;318.27;;;20.10;73.50;;;;;;5007437;28;20038;-73
2023/09/28 10:44:55;;;;;;;223.87;212.17;;;20.10;71.30;;;;;;5004688;28;20560;-73
2023/09/28 10:47:22;;;;;;;235.20;223.33;;;20.10;71.70;;;;;;5010170;28;20045;-73
2023/09/28 10:49:53;;;;;;;255.10;241.70;;;20.10;72.50;;;;;;5007319;28;20042;-73
2023/09/28 10:52:23;;;;;;;229.33;218.43;;;20.00;72.80;;;;;;5007504;28;20057;-73
2023/09/28 10:54:49;;;;;;;229.47;218.73;;;20.10;73.00;;;;;;5010201;28;20406;-72
2023/09/28 10:57:14;;;;;;;257.17;244.57;;;20.20;72.80;;;;;;5002031;28;20096;-73
2023/09/28 10:59:41;;;;;;;238.63;226.07;;;20.30;72.20;;;;;;5010092;28;20048;-73
2023/09/28 11:02:08;;;;;;;274.53;257.40;;;20.40;72.30;;;;;;5004152;28;20088;-73
2023/09/28 11:04:37;;;;;;;242.30;230.60;;;20.50;70.80;;;;;;5004417;28;20100;-73
2023/09/28 11:07:05;;;;;;;247.57;233.40;;;20.50;71.60;;;;;;5002511;28;20042;-73
2023/09/28 11:09:31;;;;;;;402.77;374.40;;;20.60;71.20;;;;;;5010645;28;20053;-73
2023/09/28 11:11:57;;;;;;;340.47;317.43;;;20.60;70.00;;;;;;4990642;28;20054;-73
2023/09/28 11:14:25;;;;;;;302.23;287.47;;;20.50;69.40;;;;;;5009438;28;20038;-73
2023/09/28 11:16:52;;;;;;;408.93;378.83;;;20.50;69.80;;;;;;4988222;28;20038;-73
2023/09/28 11:19:19;;;;;;;297.33;282.07;;;20.50;69.20;;;;;;5006231;28;20080;-73
2023/09/28 11:21:45;;;;;;;427.10;392.60;;;20.40;69.70;;;;;;4993306;28;20034;-73
2023/09/28 11:24:14;;;;;;;237.73;226.43;;;20.20;69.40;;;;;;4991440;28;20148;-73
2023/09/28 11:26:40;;;;;;;190.97;181.60;;;20.10;70.90;;;;;;5002368;28;20048;-73
2023/09/28 11:29:06;;;;;;;292.43;278.47;;;20.20;72.70;;;;;;5000209;28;20141;-73
2023/09/28 11:31:37;;;;;;;319.83;304.80;;;20.30;73.80;;;;;;5007260;28;20049;-73
2023/09/28 11:34:03;;;;;;;319.80;303.43;;;20.30;74.50;;;;;;5014588;28;20038;-73
2023/09/28 11:36:29;;;;;;;243.73;232.13;;;20.40;73.60;;;;;;5023000;28;20129;-74
2023/09/28 11:38:56;;;;;;;317.67;302.17;;;20.30;73.70;;;;;;5005969;28;20069;-75
2023/09/28 11:41:26;;;;;;;302.37;286.87;;;20.30;74.70;;;;;;5007855;28;20045;-72
2023/09/28 11:43:56;;;;;;;324.23;308.77;;;20.30;75.20;;;;;;5008220;28;20085;-73
2023/09/28 11:46:29;;;;;;;286.47;272.27;;;20.20;76.10;;;;;;5001204;28;20569;-73
2023/09/28 11:49:06;;;;;;;302.17;287.67;;;20.20;76.10;;;;;;5000488;28;20042;-73
2023/09/28 11:51:36;;;;;;;274.90;261.93;;;20.20;76.20;;;;;;5008177;28;20053;-74
2023/09/28 11:54:06;;;;;;;291.57;276.63;;;20.20;75.20;;;;;;5004116;28;20116;-73
2023/09/28 11:56:32;;;;;;;336.40;318.17;;;20.20;74.60;;;;;;5004872;28;20040;-74
2023/09/28 11:58:58;;;;;;;273.77;260.77;;;20.10;71.40;;;;;;5004439;28;20497;-74
2023/09/28 12:01:24;;;;;;;322.40;306.40;;;20.00;72.70;;;;;;4990091;28;20070;-73
2023/09/28 12:03:50;;;;;;;302.50;288.50;;;20.00;72.40;;;;;;5006756;28;20053;-75
2023/09/28 12:06:19;;;;;;;396.73;373.83;;;20.00;72.10;;;;;;4999790;28;20038;-73
2023/09/28 12:08:45;;;;;;;315.77;300.33;;;20.10;70.90;;;;;;4995979;28;20062;-75
2023/09/28 12:11:12;;;;;;;331.07;315.73;;;20.20;70.60;;;;;;5002494;28;20057;-73
2023/09/28 12:13:38;;;;;;;284.83;271.50;;;20.30;70.40;;;;;;5003911;28;20041;-73
2023/09/28 12:16:05;;;;;;;556.87;502.80;;;20.40;69.00;;;;;;5003094;28;20104;-72
2023/09/28 12:18:32;;;;;;;304.33;290.10;;;20.40;69.00;;;;;;5002497;28;20046;-74